Terminal Aerodrome Forecast
Issued by NWS Buffalo, NY

Home | Current Version | Previous Version | Text Only | Print | Product List | Glossary On
Versions: 1 2 3 4 5 6 7 8 9 10 11 12 13 14 15 16 17 18 19 20 21 22 23 24 25 26 27 28 29
502
FTUS41 KBUF 091720
TAFART
TAF
KART 091720Z 0918/1018 VRB03KT 2SM -SN OVC025
     FM092100 01004KT P6SM VCSH OVC025
     FM101400 VRB03KT 2SM -SN OVC015=

USA.gov is the U.S. government's official web portal to all federal, state and local government web resources and services.